sensor_id;sensor_type;location;lat;lon;timestamp;pressure;altitude;pressure_sealevel;temperature;humidity
61573;BME280;47465;43.094;12.434;2024-01-30T00:00:20;100458.72;;;0.75;79.67
61573;BME280;47465;43.094;12.434;2024-01-30T00:02:46;100551.03;;;1.35;79.90
61573;BME280;47465;43.094;12.434;2024-01-30T00:05:14;100473.84;;;0.82;80.60
61573;BME280;47465;43.094;12.434;2024-01-30T00:07:43;100470.84;;;0.73;80.67
61573;BME280;47465;43.094;12.434;2024-01-30T00:10:09;100539.81;;;1.17;82.73
61573;BME280;47465;43.094;12.434;2024-01-30T00:12:35;100478.81;;;0.76;82.64
61573;BME280;47465;43.094;12.434;2024-01-30T00:15:02;100476.09;;;0.73;82.29
61573;BME280;47465;43.094;12.434;2024-01-30T00:17:30;100487.28;;;0.69;83.71
61573;BME280;47465;43.094;12.434;2024-01-30T00:19:56;100524.69;;;0.87;83.70
61573;BME280;47465;43.094;12.434;2024-01-30T00:22:24;100465.34;;;0.44;83.02
61573;BME280;47465;43.094;12.434;2024-01-30T00:24:50;100528.00;;;0.83;83.37
61573;BME280;47465;43.094;12.434;2024-01-30T00:27:16;100568.69;;;0.96;85.37
61573;BME280;47465;43.094;12.434;2024-01-30T00:29:42;100520.59;;;0.73;84.27
61573;BME280;47465;43.094;12.434;2024-01-30T00:32:08;100474.09;;;0.45;83.40
61573;BME280;47465;43.094;12.434;2024-01-30T00:34:34;100475.56;;;0.38;83.30
61573;BME280;47465;43.094;12.434;2024-01-30T00:37:00;100487.81;;;0.39;82.39
61573;BME280;47465;43.094;12.434;2024-01-30T00:39:27;100480.41;;;0.29;82.71
61573;BME280;47465;43.094;12.434;2024-01-30T00:41:53;100485.97;;;0.36;83.09
61573;BME280;47465;43.094;12.434;2024-01-30T00:44:19;100465.09;;;0.38;82.20
61573;BME280;47465;43.094;12.434;2024-01-30T00:46:45;100554.81;;;0.77;83.67
61573;BME280;47465;43.094;12.434;2024-01-30T00:49:12;100555.28;;;0.46;86.42
61573;BME280;47465;43.094;12.434;2024-01-30T00:51:37;100451.38;;;0.02;85.37
61573;BME280;47465;43.094;12.434;2024-01-30T00:54:04;100463.63;;;0.03;86.35
61573;BME280;47465;43.094;12.434;2024-01-30T00:56:33;100495.84;;;0.23;88.13
61573;BME280;47465;43.094;12.434;2024-01-30T00:58:59;100461.13;;;0.06;88.05
61573;BME280;47465;43.094;12.434;2024-01-30T01:01:25;100473.06;;;-0.01;86.87
61573;BME280;47465;43.094;12.434;2024-01-30T01:03:51;100556.81;;;0.41;86.15
61573;BME280;47465;43.094;12.434;2024-01-30T01:06:17;100488.81;;;0.01;88.68
61573;BME280;47465;43.094;12.434;2024-01-30T01:08:43;100495.47;;;0.13;88.26
61573;BME280;47465;43.094;12.434;2024-01-30T01:11:12;100504.22;;;0.14;87.80
61573;BME280;47465;43.094;12.434;2024-01-30T01:13:39;100463.97;;;-0.09;85.81
61573;BME280;47465;43.094;12.434;2024-01-30T01:16:05;100465.09;;;-0.04;85.59
61573;BME280;47465;43.094;12.434;2024-01-30T01:18:31;100561.50;;;0.48;85.80
61573;BME280;47465;43.094;12.434;2024-01-30T01:20:57;100488.88;;;0.02;85.65
61573;BME280;47465;43.094;12.434;2024-01-30T01:23:24;100564.09;;;0.48;85.74
61573;BME280;47465;43.094;12.434;2024-01-30T01:25:50;100554.44;;;0.47;84.79
61573;BME280;47465;43.094;12.434;2024-01-30T01:28:16;100538.56;;;0.43;84.32
61573;BME280;47465;43.094;12.434;2024-01-30T01:30:44;100506.50;;;0.27;84.00
61573;BME280;47465;43.094;12.434;2024-01-30T01:33:13;100461.13;;;0.06;83.48
61573;BME280;47465;43.094;12.434;2024-01-30T01:35:39;100536.31;;;0.52;83.53
61573;BME280;47465;43.094;12.434;2024-01-30T01:38:06;100484.97;;;0.33;83.42
61573;BME280;47465;43.094;12.434;2024-01-30T01:40:32;100506.34;;;0.44;82.57
61573;BME280;47465;43.094;12.434;2024-01-30T01:42:58;100481.22;;;0.28;83.54
61573;BME280;47465;43.094;12.434;2024-01-30T01:45:24;100537.84;;;0.47;82.81
61573;BME280;47465;43.094;12.434;2024-01-30T01:47:52;100530.38;;;0.56;83.44
61573;BME280;47465;43.094;12.434;2024-01-30T01:50:18;100463.31;;;0.37;80.91
61573;BME280;47465;43.094;12.434;2024-01-30T01:52:47;100493.22;;;0.65;80.82
61573;BME280;47465;43.094;12.434;2024-01-30T01:55:13;100496.09;;;0.71;79.87
61573;BME280;47465;43.094;12.434;2024-01-30T01:57:41;100481.16;;;0.47;80.47
61573;BME280;47465;43.094;12.434;2024-01-30T02:00:08;100486.03;;;0.38;81.13
61573;BME280;47465;43.094;12.434;2024-01-30T02:02:36;100535.19;;;0.66;82.02
61573;BME280;47465;43.094;12.434;2024-01-30T02:05:04;100451.19;;;0.18;82.43
61573;BME280;47465;43.094;12.434;2024-01-30T02:07:32;100517.19;;;0.53;82.40
61573;BME280;47465;43.094;12.434;2024-01-30T02:09:58;100454.50;;;-0.07;83.15
61573;BME280;47465;43.094;12.434;2024-01-30T02:12:24;100519.59;;;0.27;83.96
61573;BME280;47465;43.094;12.434;2024-01-30T02:14:50;100529.38;;;0.31;83.68
61573;BME280;47465;43.094;12.434;2024-01-30T02:17:16;100438.84;;;-0.27;82.82
61573;BME280;47465;43.094;12.434;2024-01-30T02:19:43;100475.78;;;0.02;83.34
61573;BME280;47465;43.094;12.434;2024-01-30T02:22:10;100514.19;;;0.23;83.78
61573;BME280;47465;43.094;12.434;2024-01-30T02:24:36;100437.06;;;-0.28;84.03
61573;BME280;47465;43.094;12.434;2024-01-30T02:27:03;100425.31;;;-0.37;84.30
61573;BME280;47465;43.094;12.434;2024-01-30T02:29:29;100477.22;;;-0.06;84.50
61573;BME280;47465;43.094;12.434;2024-01-30T02:31:55;100435.94;;;-0.33;84.74
61573;BME280;47465;43.094;12.434;2024-01-30T02:34:21;100481.31;;;-0.11;86.13
61573;BME280;47465;43.094;12.434;2024-01-30T02:36:47;100449.03;;;-0.33;85.43
61573;BME280;47465;43.094;12.434;2024-01-30T02:39:14;100412.53;;;-0.51;85.38
61573;BME280;47465;43.094;12.434;2024-01-30T02:41:40;100493.72;;;-0.07;85.09
61573;BME280;47465;43.094;12.434;2024-01-30T02:44:06;100487.97;;;-0.19;86.20
61573;BME280;47465;43.094;12.434;2024-01-30T02:46:33;100456.47;;;-0.42;86.56
61573;BME280;47465;43.094;12.434;2024-01-30T02:48:59;100426.84;;;-0.62;87.11
61573;BME280;47465;43.094;12.434;2024-01-30T02:51:25;100436.34;;;-0.64;86.56
61573;BME280;47465;43.094;12.434;2024-01-30T02:53:51;100506.19;;;-0.21;86.08
61573;BME280;47465;43.094;12.434;2024-01-30T02:56:19;100520.16;;;-0.21;86.64
61573;BME280;47465;43.094;12.434;2024-01-30T02:58:45;100465.34;;;-0.58;88.00
61573;BME280;47465;43.094;12.434;2024-01-30T03:01:11;100473.72;;;-0.65;89.50
61573;BME280;47465;43.094;12.434;2024-01-30T03:03:37;100530.81;;;-0.35;88.05
61573;BME280;47465;43.094;12.434;2024-01-30T03:06:03;100513.41;;;-0.54;90.46
61573;BME280;47465;43.094;12.434;2024-01-30T03:08:29;100483.16;;;-0.69;89.65
61573;BME280;47465;43.094;12.434;2024-01-30T03:10:55;100538.19;;;-0.46;89.63
61573;BME280;47465;43.094;12.434;2024-01-30T03:13:23;100521.88;;;-0.60;90.22
61573;BME280;47465;43.094;12.434;2024-01-30T03:15:50;100451.16;;;-1.02;91.01
61573;BME280;47465;43.094;12.434;2024-01-30T03:18:16;100481.72;;;-0.81;91.56
61573;BME280;47465;43.094;12.434;2024-01-30T03:20:42;100444.91;;;-1.06;92.14
61573;BME280;47465;43.094;12.434;2024-01-30T03:23:08;100503.09;;;-0.71;92.62
61573;BME280;47465;43.094;12.434;2024-01-30T03:25:34;100461.69;;;-1.00;93.13
61573;BME280;47465;43.094;12.434;2024-01-30T03:28:00;100513.63;;;-0.69;93.12
61573;BME280;47465;43.094;12.434;2024-01-30T03:30:28;100479.78;;;-0.86;93.12
61573;BME280;47465;43.094;12.434;2024-01-30T03:32:54;100521.59;;;-0.66;92.44
61573;BME280;47465;43.094;12.434;2024-01-30T03:35:20;100488.91;;;-0.95;92.37
61573;BME280;47465;43.094;12.434;2024-01-30T03:37:46;100439.88;;;-1.20;93.04
61573;BME280;47465;43.094;12.434;2024-01-30T03:40:12;100479.47;;;-0.92;93.60
61573;BME280;47465;43.094;12.434;2024-01-30T03:42:39;100456.25;;;-1.05;93.05
61573;BME280;47465;43.094;12.434;2024-01-30T03:45:06;100509.56;;;-0.63;91.99
61573;BME280;47465;43.094;12.434;2024-01-30T03:47:33;100488.66;;;-0.82;92.19
61573;BME280;47465;43.094;12.434;2024-01-30T03:49:59;100534.25;;;-0.56;92.45
61573;BME280;47465;43.094;12.434;2024-01-30T03:52:25;100539.50;;;-0.56;92.76
61573;BME280;47465;43.094;12.434;2024-01-30T03:54:51;100519.88;;;-0.66;91.73
61573;BME280;47465;43.094;12.434;2024-01-30T03:57:17;100509.09;;;-0.73;91.97
61573;BME280;47465;43.094;12.434;2024-01-30T03:59:43;100495.53;;;-0.84;92.29
61573;BME280;47465;43.094;12.434;2024-01-30T04:02:10;100450.59;;;-1.14;93.19
61573;BME280;47465;43.094;12.434;2024-01-30T04:04:38;100444.78;;;-1.27;94.29
61573;BME280;47465;43.094;12.434;2024-01-30T04:07:04;100508.72;;;-0.81;95.12
61573;BME280;47465;43.094;12.434;2024-01-30T04:09:30;100432.84;;;-1.21;93.31
61573;BME280;47465;43.094;12.434;2024-01-30T04:11:56;100446.25;;;-1.14;93.85
61573;BME280;47465;43.094;12.434;2024-01-30T04:14:22;100441.25;;;-1.09;93.94
61573;BME280;47465;43.094;12.434;2024-01-30T04:16:51;100431.19;;;-1.19;94.38
61573;BME280;47465;43.094;12.434;2024-01-30T04:19:17;100478.03;;;-0.85;94.65
61573;BME280;47465;43.094;12.434;2024-01-30T04:21:45;100475.56;;;-1.01;95.50
61573;BME280;47465;43.094;12.434;2024-01-30T04:24:11;100477.72;;;-0.93;97.53
61573;BME280;47465;43.094;12.434;2024-01-30T04:26:37;100430.03;;;-1.26;96.61
61573;BME280;47465;43.094;12.434;2024-01-30T04:29:05;100503.69;;;-0.76;96.92
61573;BME280;47465;43.094;12.434;2024-01-30T04:31:31;100487.50;;;-0.69;95.27
61573;BME280;47465;43.094;12.434;2024-01-30T04:33:57;100491.34;;;-0.61;93.90
61573;BME280;47465;43.094;12.434;2024-01-30T04:36:23;100489.69;;;-0.59;93.05
61573;BME280;47465;43.094;12.434;2024-01-30T04:38:51;100436.81;;;-0.73;90.74
61573;BME280;47465;43.094;12.434;2024-01-30T04:41:17;100453.38;;;-0.72;89.64
61573;BME280;47465;43.094;12.434;2024-01-30T04:43:43;100467.88;;;-0.79;90.97
61573;BME280;47465;43.094;12.434;2024-01-30T04:46:09;100530.28;;;-0.48;90.93
61573;BME280;47465;43.094;12.434;2024-01-30T04:48:35;100447.84;;;-0.98;91.35
61573;BME280;47465;43.094;12.434;2024-01-30T04:51:01;100430.81;;;-1.09;90.16
61573;BME280;47465;43.094;12.434;2024-01-30T04:53:30;100444.50;;;-1.15;91.80
61573;BME280;47465;43.094;12.434;2024-01-30T04:55:58;100439.31;;;-1.13;90.77
61573;BME280;47465;43.094;12.434;2024-01-30T04:58:24;100494.53;;;-1.06;93.21
61573;BME280;47465;43.094;12.434;2024-01-30T05:00:50;100468.00;;;-1.15;92.62
61573;BME280;47465;43.094;12.434;2024-01-30T05:03:17;100502.09;;;-0.92;92.35
61573;BME280;47465;43.094;12.434;2024-01-30T05:05:43;100544.81;;;-0.72;92.29
61573;BME280;47465;43.094;12.434;2024-01-30T05:08:09;100505.94;;;-1.04;92.85
61573;BME280;47465;43.094;12.434;2024-01-30T05:10:35;100487.94;;;-1.15;93.43
61573;BME280;47465;43.094;12.434;2024-01-30T05:13:03;100468.81;;;-1.34;93.78
61573;BME280;47465;43.094;12.434;2024-01-30T05:15:29;100537.84;;;-1.09;95.42
61573;BME280;47465;43.094;12.434;2024-01-30T05:17:55;100454.94;;;-1.87;97.89
61573;BME280;47465;43.094;12.434;2024-01-30T05:20:21;100555.31;;;-1.44;100.00
61573;BME280;47465;43.094;12.434;2024-01-30T05:22:47;100452.84;;;-1.94;100.00
61573;BME280;47465;43.094;12.434;2024-01-30T05:25:13;100535.19;;;-1.47;100.00
61573;BME280;47465;43.094;12.434;2024-01-30T05:27:39;100522.25;;;-1.43;100.00
61573;BME280;47465;43.094;12.434;2024-01-30T05:30:09;100555.59;;;-1.20;100.00
61573;BME280;47465;43.094;12.434;2024-01-30T05:32:35;100485.81;;;-1.60;100.00
61573;BME280;47465;43.094;12.434;2024-01-30T05:35:01;100463.69;;;-1.68;100.00
61573;BME280;47465;43.094;12.434;2024-01-30T05:37:27;100507.56;;;-1.41;100.00
61573;BME280;47465;43.094;12.434;2024-01-30T05:39:53;100469.50;;;-1.56;98.96
61573;BME280;47465;43.094;12.434;2024-01-30T05:42:19;100522.25;;;-1.43;100.00
61573;BME280;47465;43.094;12.434;2024-01-30T05:44:45;100496.69;;;-1.51;100.00
61573;BME280;47465;43.094;12.434;2024-01-30T05:47:13;100466.38;;;-1.67;99.95
61573;BME280;47465;43.094;12.434;2024-01-30T05:49:39;100566.56;;;-1.27;100.00
61573;BME280;47465;43.094;12.434;2024-01-30T05:52:05;100552.34;;;-1.34;100.00
61573;BME280;47465;43.094;12.434;2024-01-30T05:54:31;100564.94;;;-1.25;100.00
61573;BME280;47465;43.094;12.434;2024-01-30T05:56:59;100558.31;;;-1.36;100.00
61573;BME280;47465;43.094;12.434;2024-01-30T05:59:25;100555.59;;;-1.38;100.00
61573;BME280;47465;43.094;12.434;2024-01-30T06:01:51;100507.19;;;-1.67;100.00
61573;BME280;47465;43.094;12.434;2024-01-30T06:04:18;100487.44;;;-1.80;100.00
61573;BME280;47465;43.094;12.434;2024-01-30T06:06:44;100562.59;;;-1.37;100.00
61573;BME280;47465;43.094;12.434;2024-01-30T06:09:10;100539.09;;;-1.55;100.00
61573;BME280;47465;43.094;12.434;2024-01-30T06:11:38;100499.66;;;-1.79;100.00
61573;BME280;47465;43.094;12.434;2024-01-30T06:14:06;100494.31;;;-1.82;100.00
61573;BME280;47465;43.094;12.434;2024-01-30T06:16:32;100485.28;;;-1.89;100.00
61573;BME280;47465;43.094;12.434;2024-01-30T06:18:58;100576.16;;;-1.44;100.00
61573;BME280;47465;43.094;12.434;2024-01-30T06:21:27;100481.84;;;-1.88;100.00
61573;BME280;47465;43.094;12.434;2024-01-30T06:23:53;100573.34;;;-1.49;100.00
61573;BME280;47465;43.094;12.434;2024-01-30T06:26:19;100568.25;;;-1.63;100.00
61573;BME280;47465;43.094;12.434;2024-01-30T06:28:45;100580.53;;;-1.61;100.00
61573;BME280;47465;43.094;12.434;2024-01-30T06:31:11;100569.72;;;-1.69;100.00
61573;BME280;47465;43.094;12.434;2024-01-30T06:33:37;100497.88;;;-2.14;100.00
61573;BME280;47465;43.094;12.434;2024-01-30T06:36:03;100520.81;;;-2.07;100.00
61573;BME280;47465;43.094;12.434;2024-01-30T06:38:31;100503.47;;;-2.07;100.00
61573;BME280;47465;43.094;12.434;2024-01-30T06:40:57;100593.63;;;-1.43;100.00
61573;BME280;47465;43.094;12.434;2024-01-30T06:43:23;100522.06;;;-1.82;100.00
61573;BME280;47465;43.094;12.434;2024-01-30T06:45:49;100509.44;;;-2.09;100.00
61573;BME280;47465;43.094;12.434;2024-01-30T06:48:16;100586.72;;;-1.59;100.00
61573;BME280;47465;43.094;12.434;2024-01-30T06:50:42;100595.53;;;-1.57;100.00
61573;BME280;47465;43.094;12.434;2024-01-30T06:53:08;100594.63;;;-1.57;100.00
61573;BME280;47465;43.094;12.434;2024-01-30T06:55:35;100533.09;;;-1.88;100.00
61573;BME280;47465;43.094;12.434;2024-01-30T06:58:01;100572.06;;;-1.57;100.00
61573;BME280;47465;43.094;12.434;2024-01-30T07:00:27;100576.75;;;-1.50;100.00
61573;BME280;47465;43.094;12.434;2024-01-30T07:02:53;100574.97;;;-1.51;100.00
61573;BME280;47465;43.094;12.434;2024-01-30T07:05:19;100586.25;;;-1.34;100.00
61573;BME280;47465;43.094;12.434;2024-01-30T07:07:47;100501.44;;;-1.78;100.00
61573;BME280;47465;43.094;12.434;2024-01-30T07:10:13;100595.28;;;-1.27;100.00
61573;BME280;47465;43.094;12.434;2024-01-30T07:12:41;100536.69;;;-1.52;100.00
61573;BME280;47465;43.094;12.434;2024-01-30T07:15:07;100544.06;;;-1.43;100.00
61573;BME280;47465;43.094;12.434;2024-01-30T07:17:34;100583.44;;;-1.20;100.00
61573;BME280;47465;43.094;12.434;2024-01-30T07:20:00;100541.00;;;-1.34;100.00
61573;BME280;47465;43.094;12.434;2024-01-30T07:22:29;100586.34;;;-0.96;100.00
61573;BME280;47465;43.094;12.434;2024-01-30T07:24:55;100528.84;;;-1.16;100.00
61573;BME280;47465;43.094;12.434;2024-01-30T07:27:21;100609.38;;;-0.70;100.00
61573;BME280;47465;43.094;12.434;2024-01-30T07:29:49;100613.28;;;-0.42;100.00
61573;BME280;47465;43.094;12.434;2024-01-30T07:32:15;100554.78;;;-0.64;100.00
61573;BME280;47465;43.094;12.434;2024-01-30T07:34:41;100569.41;;;-0.49;100.00
61573;BME280;47465;43.094;12.434;2024-01-30T07:37:07;100569.53;;;-0.46;100.00
61573;BME280;47465;43.094;12.434;2024-01-30T07:39:34;100599.94;;;-0.29;100.00
61573;BME280;47465;43.094;12.434;2024-01-30T07:42:00;100518.31;;;-0.62;99.89
61573;BME280;47465;43.094;12.434;2024-01-30T07:44:26;100603.06;;;0.02;98.06
61573;BME280;47465;43.094;12.434;2024-01-30T07:46:53;100603.81;;;0.18;96.84
61573;BME280;47465;43.094;12.434;2024-01-30T07:49:20;100595.78;;;0.14;95.71
61573;BME280;47465;43.094;12.434;2024-01-30T07:51:46;100553.75;;;0.11;92.75
61573;BME280;47465;43.094;12.434;2024-01-30T07:54:12;100603.47;;;0.51;91.57
61573;BME280;47465;43.094;12.434;2024-01-30T07:56:38;100626.63;;;0.61;91.97
61573;BME280;47465;43.094;12.434;2024-01-30T07:59:04;100620.09;;;0.73;90.88
61573;BME280;47465;43.094;12.434;2024-01-30T08:01:30;100606.44;;;0.80;90.03
61573;BME280;47465;43.094;12.434;2024-01-30T08:03:58;100614.09;;;0.96;87.53
61573;BME280;47465;43.094;12.434;2024-01-30T08:06:24;100592.38;;;0.99;87.30
61573;BME280;47465;43.094;12.434;2024-01-30T08:08:50;100575.25;;;1.07;84.70
61573;BME280;47465;43.094;12.434;2024-01-30T08:11:19;100613.31;;;1.42;84.79
61573;BME280;47465;43.094;12.434;2024-01-30T08:13:46;100554.88;;;1.22;84.37
61573;BME280;47465;43.094;12.434;2024-01-30T08:16:12;100633.88;;;1.77;83.05
61573;BME280;47465;43.094;12.434;2024-01-30T08:18:38;100602.31;;;1.74;80.64
61573;BME280;47465;43.094;12.434;2024-01-30T08:21:06;100578.47;;;1.68;80.16
61573;BME280;47465;43.094;12.434;2024-01-30T08:23:32;100597.47;;;1.84;80.80
61573;BME280;47465;43.094;12.434;2024-01-30T08:25:58;100618.72;;;2.16;79.71
61573;BME280;47465;43.094;12.434;2024-01-30T08:28:24;100599.53;;;2.17;78.19
61573;BME280;47465;43.094;12.434;2024-01-30T08:30:50;100574.28;;;2.21;77.66
61573;BME280;47465;43.094;12.434;2024-01-30T08:33:16;100614.69;;;2.50;76.37
61573;BME280;47465;43.094;12.434;2024-01-30T08:35:43;100582.91;;;2.42;76.47
61573;BME280;47465;43.094;12.434;2024-01-30T08:38:10;100557.44;;;2.40;76.29
61573;BME280;47465;43.094;12.434;2024-01-30T08:40:38;100590.94;;;2.73;75.38
61573;BME280;47465;43.094;12.434;2024-01-30T08:43:04;100605.00;;;3.00;74.90
61573;BME280;47465;43.094;12.434;2024-01-30T08:45:30;100615.38;;;3.23;74.17
61573;BME280;47465;43.094;12.434;2024-01-30T08:47:56;100541.53;;;2.88;73.55
61573;BME280;47465;43.094;12.434;2024-01-30T08:50:22;100557.75;;;3.02;73.08
61573;BME280;47465;43.094;12.434;2024-01-30T08:52:48;100598.91;;;3.28;72.77
61573;BME280;47465;43.094;12.434;2024-01-30T08:55:15;100571.66;;;3.26;72.15
61573;BME280;47465;43.094;12.434;2024-01-30T08:57:41;100599.97;;;3.64;71.59
61573;BME280;47465;43.094;12.434;2024-01-30T09:00:08;100578.81;;;3.59;70.98
61573;BME280;47465;43.094;12.434;2024-01-30T09:02:35;100594.16;;;3.74;70.39
61573;BME280;47465;43.094;12.434;2024-01-30T09:05:01;100575.69;;;3.73;70.31
61573;BME280;47465;43.094;12.434;2024-01-30T09:07:28;100570.66;;;3.80;70.29
61573;BME280;47465;43.094;12.434;2024-01-30T09:09:54;100612.84;;;4.12;69.69
61573;BME280;47465;43.094;12.434;2024-01-30T09:12:21;100572.97;;;4.00;68.84
61573;BME280;47465;43.094;12.434;2024-01-30T09:14:47;100580.38;;;4.13;68.91
61573;BME280;47465;43.094;12.434;2024-01-30T09:17:13;100601.97;;;4.33;68.30
61573;BME280;47465;43.094;12.434;2024-01-30T09:19:40;100611.38;;;4.23;68.93
61573;BME280;47465;43.094;12.434;2024-01-30T09:22:06;100601.09;;;4.32;68.07
61573;BME280;47465;43.094;12.434;2024-01-30T09:24:32;100601.47;;;4.46;68.13
61573;BME280;47465;43.094;12.434;2024-01-30T09:26:58;100616.13;;;4.68;67.79
61573;BME280;47465;43.094;12.434;2024-01-30T09:29:25;100632.41;;;4.87;67.55
61573;BME280;47465;43.094;12.434;2024-01-30T09:31:51;100575.63;;;4.65;66.68
61573;BME280;47465;43.094;12.434;2024-01-30T09:34:18;100609.78;;;4.95;66.24
61573;BME280;47465;43.094;12.434;2024-01-30T09:36:44;100590.44;;;4.96;66.10
61573;BME280;47465;43.094;12.434;2024-01-30T09:39:09;100607.63;;;5.15;65.78
61573;BME280;47465;43.094;12.434;2024-01-30T09:41:41;100602.47;;;5.20;65.33
61573;BME280;47465;43.094;12.434;2024-01-30T09:44:11;100616.97;;;5.39;64.51
61573;BME280;47465;43.094;12.434;2024-01-30T09:46:39;100610.97;;;5.46;64.49
61573;BME280;47465;43.094;12.434;2024-01-30T09:49:06;100612.91;;;5.15;65.01
61573;BME280;47465;43.094;12.434;2024-01-30T09:51:34;100603.38;;;5.22;65.44
61573;BME280;47465;43.094;12.434;2024-01-30T09:54:01;100610.25;;;5.53;64.07
61573;BME280;47465;43.094;12.434;2024-01-30T09:56:28;100613.50;;;5.79;64.04
61573;BME280;47465;43.094;12.434;2024-01-30T09:58:54;100603.19;;;5.91;63.13
61573;BME280;47465;43.094;12.434;2024-01-30T10:01:20;100606.88;;;5.98;62.46
61573;BME280;47465;43.094;12.434;2024-01-30T10:03:50;100557.25;;;5.83;62.38
61573;BME280;47465;43.094;12.434;2024-01-30T10:06:18;100548.56;;;5.89;61.11
61573;BME280;47465;43.094;12.434;2024-01-30T10:08:46;100591.66;;;6.27;61.61
61573;BME280;47465;43.094;12.434;2024-01-30T10:11:12;100622.91;;;6.50;59.94
61573;BME280;47465;43.094;12.434;2024-01-30T10:13:39;100583.09;;;6.41;60.08
61573;BME280;47465;43.094;12.434;2024-01-30T10:16:06;100567.47;;;6.53;59.43
61573;BME280;47465;43.094;12.434;2024-01-30T10:18:32;100604.00;;;6.75;59.47
61573;BME280;47465;43.094;12.434;2024-01-30T10:21:00;100599.34;;;6.62;59.62
61573;BME280;47465;43.094;12.434;2024-01-30T10:23:26;100587.97;;;6.68;59.58
61573;BME280;47465;43.094;12.434;2024-01-30T10:25:52;100597.91;;;6.79;59.74
61573;BME280;47465;43.094;12.434;2024-01-30T10:28:18;100613.19;;;6.97;59.96
61573;BME280;47465;43.094;12.434;2024-01-30T10:30:44;100598.25;;;7.01;59.63
61573;BME280;47465;43.094;12.434;2024-01-30T10:33:10;100576.88;;;6.89;58.13
61573;BME280;47465;43.094;12.434;2024-01-30T10:35:36;100582.56;;;7.12;56.46
61573;BME280;47465;43.094;12.434;2024-01-30T10:38:06;100539.03;;;6.90;56.43
61573;BME280;47465;43.094;12.434;2024-01-30T10:40:35;100573.91;;;7.24;55.77
61573;BME280;47465;43.094;12.434;2024-01-30T10:43:03;100575.81;;;7.32;55.57
61573;BME280;47465;43.094;12.434;2024-01-30T10:45:31;100565.25;;;7.34;55.11
61573;BME280;47465;43.094;12.434;2024-01-30T10:47:59;100558.03;;;7.24;54.22
61573;BME280;47465;43.094;12.434;2024-01-30T10:50:29;100570.56;;;7.34;55.06
61573;BME280;47465;43.094;12.434;2024-01-30T10:52:57;100529.47;;;6.99;56.20
61573;BME280;47465;43.094;12.434;2024-01-30T10:55:37;100511.81;;;7.00;56.11
61573;BME280;47465;43.094;12.434;2024-01-30T10:58:05;100558.97;;;7.26;56.74
61573;BME280;47465;43.094;12.434;2024-01-30T11:00:31;100526.03;;;7.07;56.57
61573;BME280;47465;43.094;12.434;2024-01-30T11:03:06;100514.47;;;6.98;56.71
61573;BME280;47465;43.094;12.434;2024-01-30T11:05:40;100525.25;;;7.12;56.30
61573;BME280;47465;43.094;12.434;2024-01-30T11:08:13;100529.72;;;7.16;56.43
61573;BME280;47465;43.094;12.434;2024-01-30T11:14:32;100486.00;;;6.82;53.81
61573;BME280;47465;43.094;12.434;2024-01-30T11:16:59;100471.75;;;6.72;53.58
61573;BME280;47465;43.094;12.434;2024-01-30T11:19:31;100480.91;;;6.94;53.68
61573;BME280;47465;43.094;12.434;2024-01-30T11:21:59;100504.13;;;7.14;53.86
61573;BME280;47465;43.094;12.434;2024-01-30T11:24:28;100470.34;;;6.97;53.78
61573;BME280;47465;43.094;12.434;2024-01-30T11:27:00;100530.03;;;7.38;52.87
61573;BME280;47465;43.094;12.434;2024-01-30T11:29:27;100478.25;;;6.96;49.81
61573;BME280;47465;43.094;12.434;2024-01-30T11:31:56;100497.03;;;7.13;51.44
61573;BME280;47465;43.094;12.434;2024-01-30T11:34:22;100501.56;;;7.20;49.85
61573;BME280;47465;43.094;12.434;2024-01-30T11:36:52;100476.72;;;7.10;52.23
61573;BME280;47465;43.094;12.434;2024-01-30T11:39:24;100463.59;;;7.16;51.02
61573;BME280;47465;43.094;12.434;2024-01-30T11:41:51;100509.81;;;7.43;50.49
61573;BME280;47465;43.094;12.434;2024-01-30T11:44:18;100481.56;;;7.42;50.59
61573;BME280;47465;43.094;12.434;2024-01-30T11:46:46;100490.44;;;7.47;50.22
61573;BME280;47465;43.094;12.434;2024-01-30T11:49:15;100496.91;;;7.68;51.68
61573;BME280;47465;43.094;12.434;2024-01-30T11:51:42;100487.09;;;7.60;51.53
61573;BME280;47465;43.094;12.434;2024-01-30T11:54:08;100491.69;;;7.75;52.76
61573;BME280;47465;43.094;12.434;2024-01-30T11:56:34;100468.66;;;7.68;52.95
61573;BME280;47465;43.094;12.434;2024-01-30T11:59:01;100460.91;;;7.87;47.98
61573;BME280;47465;43.094;12.434;2024-01-30T12:01:27;100434.38;;;7.79;49.72
61573;BME280;47465;43.094;12.434;2024-01-30T12:03:53;100489.47;;;8.15;50.33
61573;BME280;47465;43.094;12.434;2024-01-30T12:06:21;100456.69;;;8.02;48.34
61573;BME280;47465;43.094;12.434;2024-01-30T12:08:56;100415.00;;;7.83;48.94
61573;BME280;47465;43.094;12.434;2024-01-30T12:11:22;100442.50;;;7.97;48.47
61573;BME280;47465;43.094;12.434;2024-01-30T12:13:49;100459.47;;;8.16;48.98
61573;BME280;47465;43.094;12.434;2024-01-30T12:16:16;100440.91;;;8.15;48.59
61573;BME280;47465;43.094;12.434;2024-01-30T12:18:46;100459.59;;;8.32;45.61
61573;BME280;47465;43.094;12.434;2024-01-30T12:21:12;100427.72;;;8.21;47.42
61573;BME280;47465;43.094;12.434;2024-01-30T12:23:39;100434.88;;;8.31;48.54
61573;BME280;47465;43.094;12.434;2024-01-30T12:26:05;100441.22;;;8.44;49.44
61573;BME280;47465;43.094;12.434;2024-01-30T12:28:33;100435.03;;;8.47;48.99
61573;BME280;47465;43.094;12.434;2024-01-30T12:31:01;100448.38;;;8.60;50.32
61573;BME280;47465;43.094;12.434;2024-01-30T12:33:29;100382.72;;;8.27;49.21
61573;BME280;47465;43.094;12.434;2024-01-30T12:35:55;100392.56;;;8.40;49.59
61573;BME280;47465;43.094;12.434;2024-01-30T12:38:21;100389.13;;;8.51;50.65
61573;BME280;47465;43.094;12.434;2024-01-30T12:40:49;100418.47;;;8.78;48.80
61573;BME280;47465;43.094;12.434;2024-01-30T12:43:15;100394.56;;;8.74;48.62